createdAt,value
2023-01-25T00:00:06.461Z,9.93
2023-01-25T00:02:59.176Z,13.05
2023-01-25T00:05:31.764Z,10.20
2023-01-25T00:08:04.903Z,12.20
2023-01-25T00:10:37.532Z,12.50
2023-01-25T00:13:10.390Z,11.60
2023-01-25T00:15:43.052Z,12.55
2023-01-25T00:18:15.815Z,14.80
2023-01-25T00:20:48.283Z,13.27
2023-01-25T00:23:21.144Z,12.20
2023-01-25T00:25:58.725Z,10.32
2023-01-25T00:28:31.739Z,11.88
2023-01-25T00:31:05.864Z,9.57
2023-01-25T00:33:41.823Z,12.32
2023-01-25T00:36:36.702Z,5.25
2023-01-25T00:39:13.480Z,10.38
2023-01-25T00:41:46.017Z,9.75
2023-01-25T00:44:18.758Z,12.85
2023-01-25T00:46:51.213Z,6.68
2023-01-25T00:49:26.798Z,6.85
2023-01-25T00:51:59.805Z,11.30
2023-01-25T00:54:32.618Z,13.35
2023-01-25T00:57:05.627Z,13.95
2023-01-25T00:59:38.430Z,13.35
2023-01-25T01:02:12.215Z,13.38
2023-01-25T01:04:45.074Z,13.82
2023-01-25T01:07:17.652Z,14.20
2023-01-25T01:09:50.417Z,14.35
2023-01-25T01:12:22.893Z,16.25
2023-01-25T01:14:56.710Z,11.43
2023-01-25T01:17:29.225Z,15.60
2023-01-25T01:20:02.238Z,17.38
2023-01-25T01:22:34.731Z,14.38
2023-01-25T01:25:08.764Z,16.55
2023-01-25T01:27:41.411Z,16.40
2023-01-25T01:30:14.395Z,15.93
2023-01-25T01:32:47.080Z,12.00
2023-01-25T01:35:20.003Z,15.30
2023-01-25T01:37:52.450Z,11.02
2023-01-25T01:40:25.635Z,14.32
2023-01-25T01:43:07.853Z,8.80
2023-01-25T01:45:44.048Z,14.95
2023-01-25T01:48:34.597Z,13.82
2023-01-25T01:51:14.945Z,15.57
2023-01-25T01:54:16.783Z,13.48
2023-01-25T01:57:00.554Z,12.93
2023-01-25T01:59:49.373Z,13.63
2023-01-25T02:02:25.941Z,4.65
2023-01-25T02:05:04.498Z,14.65
2023-01-25T02:07:39.134Z,12.73
2023-01-25T02:10:12.994Z,14.00
2023-01-25T02:12:46.218Z,6.57
2023-01-25T02:15:18.750Z,12.30
2023-01-25T02:17:51.995Z,7.60
2023-01-25T02:20:53.589Z,7.10
2023-01-25T02:23:48.383Z,10.70
2023-01-25T02:26:22.830Z,11.20
2023-01-25T02:29:07.947Z,13.77
2023-01-25T02:31:40.536Z,13.55
2023-01-25T02:34:13.436Z,8.18
2023-01-25T02:36:45.980Z,13.85
2023-01-25T02:39:20.624Z,6.57
2023-01-25T02:41:53.869Z,12.77
2023-01-25T02:44:33.376Z,3.17
2023-01-25T02:47:06.669Z,5.53
2023-01-25T02:49:39.389Z,14.50
2023-01-25T02:52:11.911Z,14.25
2023-01-25T02:54:45.477Z,12.05
2023-01-25T02:57:17.945Z,13.95
2023-01-25T02:59:50.674Z,13.52
2023-01-25T03:02:23.198Z,12.70
2023-01-25T03:04:55.958Z,15.02
2023-01-25T03:07:28.409Z,12.13
2023-01-25T03:10:01.457Z,13.88
2023-01-25T03:12:34.011Z,12.95
2023-01-25T03:15:08.101Z,13.02
2023-01-25T03:17:40.741Z,13.20
2023-01-25T03:20:13.549Z,13.52
2023-01-25T03:22:46.055Z,14.13
2023-01-25T03:25:18.841Z,12.18
2023-01-25T03:27:51.397Z,12.27
2023-01-25T03:30:24.407Z,11.10
2023-01-25T03:32:59.733Z,10.75
2023-01-25T03:35:32.754Z,11.93
2023-01-25T03:38:05.268Z,12.35
2023-01-25T03:40:37.998Z,11.77
2023-01-25T03:43:10.454Z,12.43
2023-01-25T03:45:43.517Z,7.78
2023-01-25T03:48:15.986Z,9.25
2023-01-25T03:50:53.553Z,7.05
2023-01-25T03:53:30.202Z,6.47
2023-01-25T03:56:09.376Z,10.38
2023-01-25T03:58:41.893Z,9.50
2023-01-25T04:01:15.104Z,7.10
2023-01-25T04:03:47.588Z,10.80
2023-01-25T04:06:20.399Z,8.07
2023-01-25T04:08:52.858Z,11.38
2023-01-25T04:11:26.052Z,12.02
2023-01-25T04:13:58.524Z,10.23
2023-01-25T04:16:31.630Z,11.13
2023-01-25T04:19:04.235Z,11.43
2023-01-25T04:21:37.191Z,8.73
2023-01-25T04:24:09.872Z,5.22
2023-01-25T04:26:42.599Z,7.20
2023-01-25T04:29:15.130Z,11.57
2023-01-25T04:31:47.995Z,10.85
2023-01-25T04:34:20.615Z,10.50
2023-01-25T04:36:53.694Z,9.35
2023-01-25T04:39:26.170Z,8.63
2023-01-25T04:41:58.895Z,10.98
2023-01-25T04:44:31.415Z,10.68
2023-01-25T04:47:04.271Z,10.13
2023-01-25T04:49:36.739Z,9.93
2023-01-25T04:52:09.519Z,11.25
2023-01-25T04:54:42.013Z,11.25
2023-01-25T04:57:14.798Z,11.77
2023-01-25T04:59:47.297Z,10.57
2023-01-25T05:02:20.150Z,7.78
2023-01-25T05:04:52.726Z,5.07
2023-01-25T05:07:25.792Z,11.52
2023-01-25T05:09:58.294Z,10.68
2023-01-25T05:12:31.099Z,7.15
2023-01-25T05:15:04.249Z,8.90
2023-01-25T05:17:37.159Z,9.57
2023-01-25T05:20:10.653Z,6.72
2023-01-25T05:22:43.433Z,5.97
2023-01-25T05:25:34.421Z,10.73
2023-01-25T05:28:07.783Z,6.90
2023-01-25T05:30:40.332Z,8.60
2023-01-25T05:33:13.129Z,7.38
2023-01-25T05:35:45.699Z,8.57
2023-01-25T05:38:18.728Z,9.00
2023-01-25T05:40:51.209Z,9.02
2023-01-25T05:43:24.343Z,9.80
2023-01-25T05:45:58.689Z,9.98
2023-01-25T05:48:31.557Z,8.93
2023-01-25T05:51:04.097Z,6.65
2023-01-25T05:53:36.889Z,10.25
2023-01-25T05:56:13.093Z,6.32
2023-01-25T05:58:45.894Z,7.72
2023-01-25T06:01:18.409Z,9.57
2023-01-25T06:03:51.447Z,9.10
2023-01-25T06:06:24.532Z,8.95
2023-01-25T06:08:57.436Z,7.32
2023-01-25T06:11:29.998Z,9.63
2023-01-25T06:14:03.131Z,8.52
2023-01-25T06:16:35.670Z,5.10
2023-01-25T06:19:08.922Z,7.85
2023-01-25T06:21:41.502Z,8.05
2023-01-25T06:24:16.685Z,4.28
2023-01-25T06:26:52.146Z,7.88
2023-01-25T06:29:25.006Z,8.25
2023-01-25T06:31:57.594Z,8.50
2023-01-25T06:34:30.419Z,7.85
2023-01-25T06:37:02.998Z,4.72
2023-01-25T06:39:36.159Z,6.75
2023-01-25T06:42:08.675Z,4.30
2023-01-25T06:44:41.444Z,5.63
2023-01-25T06:47:13.944Z,7.97
2023-01-25T06:49:46.770Z,8.13
2023-01-25T06:52:19.283Z,6.65
2023-01-25T06:54:52.137Z,7.03
2023-01-25T06:57:24.668Z,4.45
2023-01-25T06:59:57.659Z,6.88
2023-01-25T07:02:30.189Z,6.28
2023-01-25T07:05:03.110Z,4.78
2023-01-25T07:07:35.982Z,7.03
2023-01-25T07:10:09.416Z,3.80
2023-01-25T07:12:42.295Z,8.48
2023-01-25T07:15:15.272Z,5.90
2023-01-25T07:17:48.050Z,6.75
2023-01-25T07:20:20.875Z,7.38
2023-01-25T07:22:53.427Z,7.10
2023-01-25T07:25:26.275Z,6.35
2023-01-25T07:27:58.856Z,6.93
2023-01-25T07:30:31.650Z,8.13
2023-01-25T07:33:04.237Z,7.80
2023-01-25T07:35:37.191Z,6.68
2023-01-25T07:38:09.784Z,5.70
2023-01-25T07:40:43.079Z,7.50
2023-01-25T07:43:15.599Z,8.75
2023-01-25T07:45:51.101Z,6.93
2023-01-25T07:48:23.596Z,6.65
2023-01-25T07:51:12.888Z,6.55
2023-01-25T07:53:45.413Z,8.10
2023-01-25T07:56:19.645Z,8.48
2023-01-25T07:58:56.747Z,5.10
2023-01-25T08:01:32.257Z,5.78
2023-01-25T08:04:05.197Z,5.47
2023-01-25T08:06:41.617Z,7.72
2023-01-25T08:09:19.878Z,6.38
2023-01-25T08:11:53.702Z,6.75
2023-01-25T08:14:26.352Z,7.30
2023-01-25T08:16:59.203Z,7.10
2023-01-25T08:19:34.375Z,6.82
2023-01-25T08:22:10.423Z,6.65
2023-01-25T08:24:42.987Z,7.88
2023-01-25T08:27:15.874Z,6.30
2023-01-25T08:29:50.553Z,5.18
2023-01-25T08:32:23.411Z,7.75
2023-01-25T08:34:55.973Z,7.20
2023-01-25T08:37:29.812Z,4.43
2023-01-25T08:40:02.552Z,8.10
2023-01-25T08:42:35.352Z,7.97
2023-01-25T08:45:08.679Z,8.30
2023-01-25T08:47:41.626Z,9.32
2023-01-25T08:50:14.676Z,8.10
2023-01-25T08:52:49.921Z,8.52
2023-01-25T08:55:22.458Z,8.43
2023-01-25T08:57:56.624Z,8.88
2023-01-25T09:00:30.158Z,4.07
2023-01-25T09:03:02.955Z,8.57
2023-01-25T09:05:36.354Z,8.68
2023-01-25T09:08:11.097Z,8.20
2023-01-25T09:10:43.660Z,8.48
2023-01-25T09:13:16.452Z,5.15
2023-01-25T09:15:49.004Z,8.20
2023-01-25T09:18:22.087Z,7.18
2023-01-25T09:20:54.719Z,7.57
2023-01-25T09:23:27.570Z,4.95
2023-01-25T09:26:01.093Z,7.22
2023-01-25T09:28:34.326Z,8.00
2023-01-25T09:31:21.070Z,7.75
2023-01-25T09:33:56.719Z,7.85
2023-01-25T09:36:29.292Z,7.60
2023-01-25T09:39:02.096Z,4.65
2023-01-25T09:42:21.469Z,8.18
2023-01-25T09:45:21.301Z,7.88
2023-01-25T09:48:05.946Z,4.65
2023-01-25T09:51:01.562Z,8.10
2023-01-25T09:53:38.235Z,7.82
2023-01-25T09:56:17.962Z,8.50
2023-01-25T09:58:54.073Z,7.43
2023-01-25T10:02:03.092Z,7.93
2023-01-25T10:04:40.251Z,8.10
2023-01-25T10:07:29.286Z,7.78
2023-01-25T10:10:11.593Z,7.70
2023-01-25T10:12:44.905Z,6.38
2023-01-25T10:15:26.595Z,7.47
2023-01-25T10:18:21.020Z,9.60
2023-01-25T10:21:05.795Z,9.32
2023-01-25T10:24:00.233Z,8.52
2023-01-25T10:26:35.895Z,6.55
2023-01-25T10:29:11.770Z,7.57
2023-01-25T10:31:50.553Z,4.70
2023-01-25T10:34:29.852Z,7.13
2023-01-25T10:37:13.839Z,8.65
2023-01-25T10:40:13.583Z,8.38
2023-01-25T10:43:08.949Z,8.40
2023-01-25T10:45:43.266Z,10.55
2023-01-25T10:48:29.070Z,9.77
2023-01-25T10:51:02.805Z,8.35
2023-01-25T10:53:39.645Z,9.48
2023-01-25T10:56:24.688Z,6.25
2023-01-25T10:59:29.608Z,9.75
2023-01-25T11:02:35.883Z,7.15
2023-01-25T11:05:26.336Z,8.85
2023-01-25T11:08:15.980Z,6.28
2023-01-25T11:10:49.139Z,3.55
2023-01-25T11:13:27.320Z,7.25
2023-01-25T11:16:04.886Z,5.78
2023-01-25T11:18:48.923Z,9.07
2023-01-25T11:21:26.579Z,6.97
2023-01-25T11:24:09.364Z,7.85
2023-01-25T11:26:42.538Z,9.27
2023-01-25T11:29:24.792Z,9.07
2023-01-25T11:31:58.997Z,10.48
2023-01-25T11:34:32.270Z,10.85
2023-01-25T11:37:36.158Z,11.43
2023-01-25T11:40:20.664Z,9.13
2023-01-25T11:43:38.387Z,10.20
2023-01-25T11:46:17.564Z,11.43
2023-01-25T11:49:18.539Z,12.63
2023-01-25T11:52:06.282Z,11.75
2023-01-25T11:54:49.384Z,10.40
2023-01-25T11:57:37.678Z,11.02
2023-01-25T12:00:16.132Z,11.32
2023-01-25T12:03:12.178Z,9.88
2023-01-25T12:05:54.979Z,9.98
2023-01-25T12:08:36.744Z,10.60
2023-01-25T12:11:17.030Z,9.93
2023-01-25T12:14:10.904Z,7.55
2023-01-25T12:16:52.509Z,2.88
2023-01-25T12:19:55.965Z,10.48
2023-01-25T12:22:49.566Z,10.77
2023-01-25T12:25:56.370Z,10.18
2023-01-25T12:28:31.709Z,16.02
2023-01-25T12:31:22.628Z,18.77
2023-01-25T12:34:03.802Z,18.30
2023-01-25T12:36:57.716Z,17.60
2023-01-25T12:39:38.195Z,14.52
2023-01-25T12:42:22.434Z,11.30
2023-01-25T12:45:21.350Z,10.73
2023-01-25T12:47:58.135Z,10.85
2023-01-25T12:50:36.112Z,11.27
2023-01-25T12:53:31.256Z,11.70
2023-01-25T12:56:07.701Z,11.15
2023-01-25T12:59:14.235Z,9.90
2023-01-25T13:02:28.286Z,10.10
2023-01-25T13:05:27.103Z,9.50
2023-01-25T13:08:39.736Z,8.13
2023-01-25T13:11:19.556Z,9.90
2023-01-25T13:13:52.157Z,11.63
2023-01-25T13:16:31.254Z,11.05
2023-01-25T13:19:04.060Z,11.77
2023-01-25T13:21:36.881Z,9.75
2023-01-25T13:24:17.342Z,10.85
2023-01-25T13:26:53.089Z,10.07
2023-01-25T13:29:38.610Z,11.25
2023-01-25T13:32:13.112Z,10.13
2023-01-25T13:34:45.594Z,8.35
2023-01-25T13:37:30.117Z,8.30
2023-01-25T13:40:30.429Z,10.30
2023-01-25T13:43:16.970Z,10.20
2023-01-25T13:45:52.782Z,10.18
2023-01-25T13:48:27.808Z,10.50
2023-01-25T13:51:14.194Z,12.75
2023-01-25T13:53:58.159Z,10.52
2023-01-25T13:56:35.700Z,11.93
2023-01-25T13:59:24.952Z,11.10
2023-01-25T14:01:59.403Z,12.82
2023-01-25T14:04:32.334Z,8.48
2023-01-25T14:07:10.091Z,5.38
2023-01-25T14:09:44.455Z,13.18
2023-01-25T14:12:42.101Z,11.57
2023-01-25T14:15:32.279Z,13.02
2023-01-25T14:18:17.613Z,10.80
2023-01-25T14:20:51.742Z,13.27
2023-01-25T14:23:28.420Z,12.60
2023-01-25T14:26:02.208Z,12.07
2023-01-25T14:28:34.887Z,13.25
2023-01-25T14:31:32.352Z,10.48
2023-01-25T14:34:06.228Z,13.68
2023-01-25T14:36:41.571Z,11.98
2023-01-25T14:39:25.338Z,12.10
2023-01-25T14:42:01.407Z,12.98
2023-01-25T14:44:36.857Z,12.82
2023-01-25T14:47:28.523Z,13.05
2023-01-25T14:50:30.238Z,14.27
2023-01-25T14:53:19.070Z,15.00
2023-01-25T14:55:52.160Z,14.07
2023-01-25T14:58:34.287Z,14.05
2023-01-25T15:01:11.736Z,13.77
2023-01-25T15:03:51.615Z,15.75
2023-01-25T15:06:24.335Z,16.00
2023-01-25T15:08:57.467Z,16.42
2023-01-25T15:11:35.290Z,14.45
2023-01-25T15:14:28.381Z,15.00
2023-01-25T15:17:00.885Z,14.30
2023-01-25T15:19:34.799Z,14.75
2023-01-25T15:22:08.939Z,13.52
2023-01-25T15:24:47.185Z,14.60
2023-01-25T15:27:22.754Z,10.85
2023-01-25T15:29:55.541Z,16.00
2023-01-25T15:32:28.216Z,13.98
2023-01-25T15:35:01.025Z,16.77
2023-01-25T15:37:33.536Z,15.45
2023-01-25T15:40:07.493Z,14.15
2023-01-25T15:42:40.694Z,14.00
2023-01-25T15:45:13.563Z,17.20
2023-01-25T15:47:46.089Z,16.52
2023-01-25T15:50:19.439Z,16.60
2023-01-25T15:52:51.955Z,14.68
2023-01-25T15:55:24.885Z,14.55
2023-01-25T15:57:57.580Z,12.30
2023-01-25T16:00:30.635Z,14.43
2023-01-25T16:03:03.204Z,16.42
2023-01-25T16:05:36.763Z,13.70
2023-01-25T16:08:16.051Z,16.20
2023-01-25T16:10:48.917Z,16.20
2023-01-25T16:13:24.935Z,15.15
2023-01-25T16:15:57.837Z,18.10
2023-01-25T16:18:30.384Z,15.95
2023-01-25T16:21:03.393Z,15.52
2023-01-25T16:23:35.934Z,17.48
2023-01-25T16:26:21.168Z,16.70
2023-01-25T16:28:53.835Z,16.85
2023-01-25T16:31:33.019Z,16.25
2023-01-25T16:34:05.947Z,18.13
2023-01-25T16:36:39.758Z,15.98
2023-01-25T16:39:20.118Z,16.88
2023-01-25T16:41:53.671Z,16.15
2023-01-25T16:44:26.176Z,16.30
2023-01-25T16:46:58.968Z,15.27
2023-01-25T16:49:32.223Z,17.42
2023-01-25T16:52:05.202Z,17.80
2023-01-25T16:54:37.800Z,18.17
2023-01-25T16:57:20.261Z,17.90
2023-01-25T16:59:53.145Z,16.65
2023-01-25T17:02:25.954Z,14.15
2023-01-25T17:04:58.514Z,18.15
2023-01-25T17:07:31.379Z,16.27
2023-01-25T17:10:06.600Z,18.52
2023-01-25T17:12:39.477Z,17.85
2023-01-25T17:15:12.107Z,18.20
2023-01-25T17:17:44.890Z,18.35
2023-01-25T17:20:17.450Z,17.48
2023-01-25T17:22:51.289Z,15.27
2023-01-25T17:25:24.672Z,19.88
2023-01-25T17:27:57.682Z,17.90
2023-01-25T17:30:30.507Z,17.80
2023-01-25T17:33:03.259Z,19.20
2023-01-25T17:35:36.417Z,18.58
2023-01-25T17:38:09.497Z,18.00
2023-01-25T17:40:42.056Z,16.25
2023-01-25T17:43:15.036Z,18.63
2023-01-25T17:45:47.869Z,16.27
2023-01-25T17:48:20.702Z,16.85
2023-01-25T17:51:02.762Z,17.40
2023-01-25T17:53:35.803Z,16.75
2023-01-25T17:56:10.463Z,15.48
2023-01-25T17:58:43.299Z,15.68
2023-01-25T18:01:24.633Z,18.38
2023-01-25T18:03:57.773Z,18.27
2023-01-25T18:06:31.409Z,17.88
2023-01-25T18:09:06.202Z,17.63
2023-01-25T18:11:40.934Z,19.92
2023-01-25T18:14:16.945Z,18.55
2023-01-25T18:16:49.685Z,17.27
2023-01-25T18:19:22.514Z,16.95
2023-01-25T18:21:55.021Z,19.95
2023-01-25T18:24:35.847Z,19.23
2023-01-25T18:27:22.613Z,19.90
2023-01-25T18:30:26.099Z,22.17
2023-01-25T18:32:59.466Z,17.40
2023-01-25T18:35:32.592Z,19.88
2023-01-25T18:38:05.109Z,19.20
2023-01-25T18:40:40.159Z,21.15
2023-01-25T18:43:13.814Z,19.77
2023-01-25T18:45:53.388Z,20.38
2023-01-25T18:48:33.002Z,19.58
2023-01-25T18:51:07.665Z,20.45
2023-01-25T18:53:42.227Z,20.38
2023-01-25T18:56:20.087Z,19.15
2023-01-25T18:58:55.437Z,24.83
2023-01-25T19:01:30.754Z,20.55
2023-01-25T19:04:03.407Z,21.70
2023-01-25T19:06:36.210Z,22.05
2023-01-25T19:09:08.731Z,21.55
2023-01-25T19:11:41.558Z,22.95
2023-01-25T19:14:14.083Z,19.67
2023-01-25T19:16:47.159Z,22.48
2023-01-25T19:19:20.979Z,22.48
2023-01-25T19:21:53.741Z,21.60
2023-01-25T19:24:27.063Z,20.80
2023-01-25T19:27:00.191Z,22.88
2023-01-25T19:29:32.705Z,22.13
2023-01-25T19:32:05.674Z,21.42
2023-01-25T19:34:41.161Z,19.23
2023-01-25T19:37:14.009Z,19.73
2023-01-25T19:39:47.226Z,20.15
2023-01-25T19:42:20.498Z,22.88
2023-01-25T19:44:53.316Z,22.23
2023-01-25T19:47:26.372Z,20.50
2023-01-25T19:50:00.481Z,15.13
2023-01-25T19:52:33.351Z,20.45
2023-01-25T19:55:06.501Z,15.65
2023-01-25T19:57:39.303Z,17.85
2023-01-25T20:00:12.467Z,17.98
2023-01-25T20:02:45.333Z,17.27
2023-01-25T20:05:17.882Z,19.25
2023-01-25T20:07:50.689Z,18.95
2023-01-25T20:10:23.233Z,19.67
2023-01-25T20:12:56.007Z,18.98
2023-01-25T20:15:28.609Z,21.95
2023-01-25T20:18:01.436Z,20.25
2023-01-25T20:20:33.966Z,20.77
2023-01-25T20:23:06.808Z,19.85
2023-01-25T20:25:39.453Z,20.25
2023-01-25T20:28:12.248Z,18.23
2023-01-25T20:30:47.238Z,17.20
2023-01-25T20:33:20.987Z,18.55
2023-01-25T20:35:55.147Z,18.67
2023-01-25T20:38:32.620Z,18.33
2023-01-25T20:41:07.729Z,18.20
2023-01-25T20:43:54.279Z,17.65
2023-01-25T20:46:27.132Z,17.73
2023-01-25T20:49:00.931Z,19.25
2023-01-25T20:51:35.061Z,16.98
2023-01-25T20:54:07.912Z,18.88
2023-01-25T20:56:40.484Z,20.05
2023-01-25T20:59:13.476Z,18.75
2023-01-25T21:01:46.806Z,20.15
2023-01-25T21:04:19.754Z,21.27
2023-01-25T21:06:52.229Z,19.67
2023-01-25T21:09:28.296Z,22.35
2023-01-25T21:12:00.841Z,21.38
2023-01-25T21:14:33.652Z,21.88
2023-01-25T21:17:06.224Z,24.17
2023-01-25T21:19:39.080Z,20.98
2023-01-25T21:22:11.608Z,23.05
2023-01-25T21:24:44.447Z,20.67
2023-01-25T21:27:17.240Z,20.85
2023-01-25T21:29:50.029Z,18.88
2023-01-25T21:32:23.472Z,21.58
2023-01-25T21:34:56.303Z,20.30
2023-01-25T21:37:29.278Z,20.00
2023-01-25T21:40:02.156Z,20.60
2023-01-25T21:42:34.678Z,20.58
2023-01-25T21:45:27.671Z,18.00
2023-01-25T21:48:00.447Z,16.48
2023-01-25T21:50:51.859Z,19.70
2023-01-25T21:53:24.388Z,17.70
2023-01-25T21:55:57.288Z,19.92
2023-01-25T21:58:29.782Z,18.40
2023-01-25T22:01:04.088Z,18.65
2023-01-25T22:03:37.071Z,17.55
2023-01-25T22:06:09.864Z,17.75
2023-01-25T22:08:42.519Z,15.70
2023-01-25T22:11:16.031Z,17.05
2023-01-25T22:13:48.532Z,18.17
2023-01-25T22:16:21.704Z,18.08
2023-01-25T22:18:54.190Z,17.98
2023-01-25T22:21:31.185Z,20.65
2023-01-25T22:24:05.483Z,18.08
2023-01-25T22:27:03.280Z,19.83
2023-01-25T22:29:35.819Z,19.50
2023-01-25T22:32:08.887Z,18.30
2023-01-25T22:34:41.523Z,19.02
2023-01-25T22:37:14.564Z,20.17
2023-01-25T22:39:48.287Z,17.77
2023-01-25T22:42:21.115Z,17.83
2023-01-25T22:44:54.166Z,17.60
2023-01-25T22:47:27.115Z,18.95
2023-01-25T22:49:59.610Z,18.95
2023-01-25T22:52:32.397Z,19.83
2023-01-25T22:55:05.169Z,18.88
2023-01-25T22:57:38.053Z,19.00
2023-01-25T23:00:12.913Z,19.90
2023-01-25T23:02:45.922Z,19.70
2023-01-25T23:05:18.536Z,19.52
2023-01-25T23:07:51.358Z,19.23
2023-01-25T23:10:23.956Z,19.25
2023-01-25T23:12:56.720Z,19.42
2023-01-25T23:15:29.356Z,21.00
2023-01-25T23:18:20.548Z,19.90
2023-01-25T23:20:53.069Z,19.38
2023-01-25T23:23:25.939Z,19.02
2023-01-25T23:26:01.342Z,20.70
2023-01-25T23:28:34.348Z,19.80
2023-01-25T23:31:18.266Z,21.30
2023-01-25T23:33:52.571Z,20.10
2023-01-25T23:36:25.049Z,21.60
2023-01-25T23:38:58.466Z,20.27
2023-01-25T23:41:31.509Z,19.88
2023-01-25T23:44:04.421Z,21.88
2023-01-25T23:46:37.464Z,21.83
2023-01-25T23:49:10.416Z,22.02
2023-01-25T23:51:42.974Z,22.60
2023-01-25T23:54:15.838Z,20.85
2023-01-25T23:56:48.328Z,22.95
2023-01-25T23:59:21.548Z,22.33
